createdAt,value
2018-03-22T00:00:20.116Z,-4.10
2018-03-22T00:02:47.744Z,-4.10
2018-03-22T00:05:15.393Z,-4.10
2018-03-22T00:07:43.750Z,-4.10
2018-03-22T00:10:11.436Z,-4.20
2018-03-22T00:12:39.086Z,-4.10
2018-03-22T00:15:06.739Z,-4.10
2018-03-22T00:17:34.349Z,-4.20
2018-03-22T00:20:01.932Z,-4.20
2018-03-22T00:22:38.376Z,-4.20
2018-03-22T00:25:05.990Z,-4.20
2018-03-22T00:27:33.633Z,-4.20
2018-03-22T00:30:01.222Z,-4.20
2018-03-22T00:32:28.792Z,-4.20
2018-03-22T00:34:56.436Z,-4.20
2018-03-22T00:37:24.019Z,-4.20
2018-03-22T00:39:51.628Z,-4.10
2018-03-22T00:42:19.176Z,-4.10
2018-03-22T00:44:46.814Z,-4.00
2018-03-22T00:47:14.420Z,-3.90
2018-03-22T00:49:41.986Z,-3.90
2018-03-22T00:52:09.523Z,-3.80
2018-03-22T00:54:37.081Z,-3.80
2018-03-22T00:57:04.685Z,-3.80
2018-03-22T00:59:32.302Z,-3.80
2018-03-22T01:01:59.892Z,-3.80
2018-03-22T01:04:27.490Z,-3.80
2018-03-22T01:06:55.840Z,-3.80
2018-03-22T01:09:23.405Z,-3.80
2018-03-22T01:11:50.990Z,-3.80
2018-03-22T01:14:18.595Z,-3.80
2018-03-22T01:16:46.197Z,-3.70
2018-03-22T01:19:13.752Z,-3.80
2018-03-22T01:21:41.436Z,-3.80
2018-03-22T01:24:09.915Z,-3.70
2018-03-22T01:26:37.590Z,-3.80
2018-03-22T01:29:05.143Z,-3.80
2018-03-22T01:31:32.756Z,-3.70
2018-03-22T01:34:00.346Z,-3.80
2018-03-22T01:36:27.985Z,-3.80
2018-03-22T01:38:55.596Z,-3.80
2018-03-22T01:41:23.245Z,-3.80
2018-03-22T01:43:52.297Z,-3.90
2018-03-22T01:46:19.903Z,-3.90
2018-03-22T01:48:47.408Z,-3.80
2018-03-22T01:51:14.996Z,-3.80
2018-03-22T01:53:42.507Z,-3.80
2018-03-22T01:56:10.803Z,-3.80
2018-03-22T01:58:38.431Z,-3.80
2018-03-22T02:01:06.046Z,-3.80
2018-03-22T02:03:33.718Z,-3.80
2018-03-22T02:06:01.362Z,-3.80
2018-03-22T02:08:28.987Z,-3.80
2018-03-22T02:10:57.952Z,-3.80
2018-03-22T02:13:25.538Z,-3.80
2018-03-22T02:15:53.116Z,-3.70
2018-03-22T02:18:20.669Z,-3.70
2018-03-22T02:20:48.255Z,-3.70
2018-03-22T02:23:15.862Z,-3.70
2018-03-22T02:25:43.402Z,-3.70
2018-03-22T02:28:10.990Z,-3.70
2018-03-22T02:30:38.624Z,-3.70
2018-03-22T02:33:06.243Z,-3.80
2018-03-22T02:35:34.592Z,-3.80
2018-03-22T02:38:02.190Z,-3.90
2018-03-22T02:40:29.712Z,-3.80
2018-03-22T02:42:57.282Z,-3.90
2018-03-22T02:45:24.812Z,-3.90
2018-03-22T02:47:52.413Z,-3.90
2018-03-22T02:50:20.743Z,-4.00
2018-03-22T02:52:48.404Z,-4.00
2018-03-22T02:55:15.991Z,-4.00
2018-03-22T02:57:43.536Z,-4.00
2018-03-22T03:00:11.126Z,-4.00
2018-03-22T03:02:39.452Z,-4.00
2018-03-22T03:05:07.036Z,-4.00
2018-03-22T03:07:34.554Z,-4.00
2018-03-22T03:10:02.902Z,-3.90
2018-03-22T03:12:30.528Z,-4.00
2018-03-22T03:14:58.181Z,-4.00
2018-03-22T03:17:25.754Z,-4.00
2018-03-22T03:19:53.318Z,-3.90
2018-03-22T03:22:20.844Z,-3.90
2018-03-22T03:24:49.203Z,-4.00
2018-03-22T03:27:16.730Z,-4.00
2018-03-22T03:29:44.300Z,-4.00
2018-03-22T03:32:11.974Z,-4.00
2018-03-22T03:34:39.604Z,-4.00
2018-03-22T03:37:07.236Z,-4.10
2018-03-22T03:39:34.871Z,-4.10
2018-03-22T03:42:03.200Z,-4.10
2018-03-22T03:44:30.746Z,-4.20
2018-03-22T03:46:58.359Z,-4.10
2018-03-22T03:49:25.995Z,-4.10
2018-03-22T03:51:53.537Z,-4.10
2018-03-22T03:54:21.119Z,-4.10
2018-03-22T03:56:48.681Z,-4.10
2018-03-22T03:59:19.750Z,-4.10
2018-03-22T04:01:47.298Z,-4.10
2018-03-22T04:04:15.687Z,-4.20
2018-03-22T04:06:43.262Z,-4.20
2018-03-22T04:09:10.844Z,-4.20
2018-03-22T04:11:39.186Z,-4.20
2018-03-22T04:14:06.816Z,-4.30
2018-03-22T04:16:34.415Z,-4.20
2018-03-22T04:19:02.764Z,-4.20
2018-03-22T04:21:30.414Z,-4.30
2018-03-22T04:23:57.976Z,-4.30
2018-03-22T04:26:25.592Z,-4.30
2018-03-22T04:28:53.923Z,-4.30
2018-03-22T04:31:21.570Z,-4.40
2018-03-22T04:33:49.125Z,-4.30
2018-03-22T04:36:17.475Z,-4.40
2018-03-22T04:38:45.106Z,-4.40
2018-03-22T04:41:12.697Z,-4.40
2018-03-22T04:43:40.284Z,-4.40
2018-03-22T04:46:07.898Z,-4.40
2018-03-22T04:48:35.500Z,-4.40
2018-03-22T04:51:03.074Z,-4.50
2018-03-22T04:53:30.678Z,-4.50
2018-03-22T04:55:58.352Z,-4.50
2018-03-22T04:58:26.729Z,-4.50
2018-03-22T05:00:54.352Z,-4.60
2018-03-22T05:03:21.955Z,-4.60
2018-03-22T05:05:49.548Z,-4.50
2018-03-22T05:08:17.912Z,-4.60
2018-03-22T05:10:46.294Z,-4.60
2018-03-22T05:13:14.663Z,-4.60
2018-03-22T05:15:42.278Z,-4.60
2018-03-22T05:18:09.793Z,-4.60
2018-03-22T05:20:37.451Z,-4.60
2018-03-22T05:23:05.075Z,-4.60
2018-03-22T05:25:32.606Z,-4.60
2018-03-22T05:28:00.975Z,-4.60
2018-03-22T05:30:29.374Z,-4.50
2018-03-22T05:32:56.970Z,-4.60
2018-03-22T05:35:24.658Z,-4.50
2018-03-22T05:37:52.352Z,-4.50
2018-03-22T05:40:19.971Z,-4.50
2018-03-22T05:42:50.351Z,-4.50
2018-03-22T05:45:18.358Z,-4.50
2018-03-22T05:47:45.946Z,-4.40
2018-03-22T05:50:13.613Z,-4.40
2018-03-22T05:52:42.955Z,-4.30
2018-03-22T05:55:12.304Z,-4.30
2018-03-22T05:57:40.036Z,-4.40
2018-03-22T06:00:07.712Z,-4.20
2018-03-22T06:02:35.396Z,-4.20
2018-03-22T06:05:02.981Z,-4.20
2018-03-22T06:07:31.349Z,-4.10
2018-03-22T06:09:59.684Z,-4.10
2018-03-22T06:12:27.255Z,-4.20
2018-03-22T06:14:54.772Z,-4.10
2018-03-22T06:17:23.952Z,-4.10
2018-03-22T06:19:51.586Z,-4.20
2018-03-22T06:22:19.616Z,-4.10
2018-03-22T06:24:47.324Z,-4.00
2018-03-22T06:27:14.922Z,-4.00
2018-03-22T06:29:43.313Z,-3.80
2018-03-22T06:32:10.914Z,-3.90
2018-03-22T06:34:38.583Z,-3.70
2018-03-22T06:37:06.108Z,-3.60
2018-03-22T06:39:33.724Z,-3.40
2018-03-22T06:42:01.308Z,-3.30
2018-03-22T06:44:28.888Z,-3.20
2018-03-22T06:46:56.676Z,-3.00
2018-03-22T06:49:24.289Z,-2.90
2018-03-22T06:51:51.921Z,-2.80
2018-03-22T06:54:19.498Z,-2.70
2018-03-22T06:56:47.182Z,-2.70
2018-03-22T06:59:15.588Z,-2.60
2018-03-22T07:01:43.179Z,-2.70
2018-03-22T07:04:10.742Z,-2.50
2018-03-22T07:06:38.300Z,-2.40
2018-03-22T07:09:06.724Z,-2.30
2018-03-22T07:11:34.361Z,-2.30
2018-03-22T07:14:02.834Z,-2.10
2018-03-22T07:16:30.518Z,-2.20
2018-03-22T07:18:58.300Z,-2.10
2018-03-22T07:21:26.754Z,-1.90
2018-03-22T07:23:54.370Z,-1.90
2018-03-22T07:26:22.073Z,-1.80
2018-03-22T07:28:49.726Z,-1.80
2018-03-22T07:31:17.355Z,-1.70
2018-03-22T07:33:45.046Z,-1.60
2018-03-22T07:36:12.679Z,-1.60
2018-03-22T07:38:40.356Z,-1.50
2018-03-22T07:41:07.938Z,-1.40
2018-03-22T07:43:41.355Z,-1.40
2018-03-22T07:46:09.019Z,-1.30
2018-03-22T07:48:36.678Z,-1.20
2018-03-22T07:51:04.370Z,-1.10
2018-03-22T07:53:32.083Z,-1.00
2018-03-22T07:55:59.768Z,-0.90
2018-03-22T07:58:27.450Z,-0.80
2018-03-22T08:00:55.115Z,-0.70
2018-03-22T08:03:23.533Z,-0.40
2018-03-22T08:05:51.199Z,-0.50
2018-03-22T08:08:18.761Z,-0.40
2018-03-22T08:10:46.427Z,-0.30
2018-03-22T08:13:14.094Z,-0.20
2018-03-22T08:15:41.738Z,0.00
2018-03-22T08:18:09.263Z,0.10
2018-03-22T08:20:36.801Z,0.20
2018-03-22T08:23:04.319Z,0.30
2018-03-22T08:25:32.699Z,0.40
2018-03-22T08:28:00.238Z,0.40
2018-03-22T08:30:28.551Z,0.60
2018-03-22T08:32:56.071Z,0.60
2018-03-22T08:35:23.668Z,0.70
2018-03-22T08:37:51.210Z,0.80
2018-03-22T08:40:19.504Z,1.00
2018-03-22T08:42:47.081Z,1.00
2018-03-22T08:45:14.598Z,1.10
2018-03-22T08:47:43.680Z,1.30
2018-03-22T08:50:11.291Z,1.20
2018-03-22T08:52:38.858Z,1.40
2018-03-22T08:55:06.376Z,1.60
2018-03-22T08:57:34.725Z,1.70
2018-03-22T09:00:02.266Z,1.60
2018-03-22T09:02:29.886Z,1.80
2018-03-22T09:04:58.203Z,1.80
2018-03-22T09:07:25.754Z,1.80
2018-03-22T09:09:53.318Z,1.90
2018-03-22T09:12:20.873Z,1.90
2018-03-22T09:14:48.419Z,1.90
2018-03-22T09:17:16.131Z,2.00
2018-03-22T09:19:43.654Z,2.10
2018-03-22T09:22:11.190Z,2.20
2018-03-22T09:24:38.794Z,2.30
2018-03-22T09:27:06.376Z,2.30
2018-03-22T09:29:33.900Z,2.40
2018-03-22T09:32:01.531Z,2.50
2018-03-22T09:34:29.885Z,2.70
2018-03-22T09:36:57.490Z,2.70
2018-03-22T09:39:29.426Z,3.00
2018-03-22T09:41:57.052Z,2.90
2018-03-22T09:44:24.679Z,3.10
2018-03-22T09:46:52.300Z,3.20
2018-03-22T09:49:19.905Z,3.30
2018-03-22T09:51:47.435Z,3.40
2018-03-22T09:54:14.998Z,3.40
2018-03-22T09:56:43.290Z,3.50
2018-03-22T09:59:11.614Z,3.50
2018-03-22T10:01:39.183Z,3.50
2018-03-22T10:04:06.747Z,3.60
2018-03-22T10:06:34.280Z,3.60
2018-03-22T10:09:01.903Z,3.50
2018-03-22T10:11:29.472Z,3.50
2018-03-22T10:13:57.806Z,3.30
2018-03-22T10:16:25.387Z,3.20
2018-03-22T10:18:53.774Z,3.30
2018-03-22T10:21:21.318Z,3.20
2018-03-22T10:23:48.956Z,3.40
2018-03-22T10:26:16.474Z,3.40
2018-03-22T10:28:44.052Z,3.40
2018-03-22T10:31:12.384Z,3.60
2018-03-22T10:33:39.982Z,3.60
2018-03-22T10:36:08.328Z,3.80
2018-03-22T10:38:35.918Z,3.70
2018-03-22T10:41:03.561Z,3.80
2018-03-22T10:43:31.851Z,4.00
2018-03-22T10:45:59.409Z,4.00
2018-03-22T10:48:27.737Z,4.10
2018-03-22T10:50:55.332Z,4.10
2018-03-22T10:53:24.418Z,4.10
2018-03-22T10:55:52.054Z,4.10
2018-03-22T10:58:19.645Z,4.10
2018-03-22T11:00:52.875Z,4.10
2018-03-22T11:03:26.265Z,4.00
2018-03-22T11:05:53.886Z,3.90
2018-03-22T11:08:21.733Z,3.80
2018-03-22T11:10:49.342Z,3.80
2018-03-22T11:13:16.980Z,3.90
2018-03-22T11:15:44.562Z,3.90
2018-03-22T11:18:12.147Z,3.90
2018-03-22T11:20:40.474Z,4.00
2018-03-22T11:23:08.062Z,3.90
2018-03-22T11:25:35.587Z,4.10
2018-03-22T11:28:03.144Z,4.20
2018-03-22T11:30:30.737Z,4.10
2018-03-22T11:32:58.342Z,4.00
2018-03-22T11:35:26.057Z,3.90
2018-03-22T11:37:53.623Z,3.80
2018-03-22T11:40:21.279Z,3.70
2018-03-22T11:42:48.880Z,3.70
2018-03-22T11:45:17.195Z,3.60
2018-03-22T11:47:44.813Z,3.60
2018-03-22T11:50:13.187Z,3.50
2018-03-22T11:52:41.626Z,3.40
2018-03-22T11:55:09.203Z,3.40
2018-03-22T11:57:36.803Z,3.40
2018-03-22T12:00:04.431Z,3.30
2018-03-22T12:02:31.987Z,3.30
2018-03-22T12:04:59.530Z,3.30
2018-03-22T12:07:27.147Z,3.30
2018-03-22T12:09:55.502Z,3.50
2018-03-22T12:12:23.243Z,3.40
2018-03-22T12:14:50.811Z,3.50
2018-03-22T12:17:18.407Z,3.50
2018-03-22T12:19:46.792Z,3.30
2018-03-22T12:22:14.459Z,3.30
2018-03-22T12:24:42.814Z,3.20
2018-03-22T12:27:10.416Z,3.20
2018-03-22T12:29:38.052Z,3.20
2018-03-22T12:32:05.677Z,3.10
2018-03-22T12:34:33.216Z,3.00
2018-03-22T12:37:00.866Z,3.00
2018-03-22T12:39:28.463Z,3.00
2018-03-22T12:41:56.026Z,2.90
2018-03-22T12:44:23.594Z,2.90
2018-03-22T12:46:51.146Z,2.90
2018-03-22T12:49:18.706Z,3.00
2018-03-22T12:51:46.327Z,2.90
2018-03-22T12:54:13.874Z,2.90
2018-03-22T12:56:42.198Z,2.90
2018-03-22T12:59:09.816Z,2.90
2018-03-22T13:01:37.434Z,2.90
2018-03-22T13:04:05.000Z,2.80
2018-03-22T13:06:32.571Z,2.70
2018-03-22T13:09:00.173Z,2.70
2018-03-22T13:11:27.786Z,2.80
2018-03-22T13:13:55.372Z,2.70
2018-03-22T13:16:23.781Z,2.70
2018-03-22T13:18:51.333Z,2.70
2018-03-22T13:21:18.910Z,2.80
2018-03-22T13:23:46.538Z,2.90
2018-03-22T13:26:14.831Z,2.90
2018-03-22T13:28:43.132Z,2.90
2018-03-22T13:31:11.494Z,2.90
2018-03-22T13:33:40.592Z,2.80
2018-03-22T13:36:08.966Z,2.80
2018-03-22T13:38:36.515Z,2.80
2018-03-22T13:41:05.573Z,2.70
2018-03-22T13:43:33.136Z,2.70
2018-03-22T13:46:00.643Z,2.70
2018-03-22T13:48:28.942Z,2.70
2018-03-22T13:50:56.531Z,2.60
2018-03-22T13:53:24.159Z,2.70
2018-03-22T13:55:51.723Z,2.70
2018-03-22T13:58:19.255Z,2.80
2018-03-22T14:00:47.566Z,2.80
2018-03-22T14:03:15.135Z,2.70
2018-03-22T14:05:42.697Z,2.70
2018-03-22T14:08:10.217Z,2.80
2018-03-22T14:10:37.820Z,2.70
2018-03-22T14:13:05.354Z,2.60
2018-03-22T14:15:32.898Z,2.60
2018-03-22T14:18:01.217Z,2.50
2018-03-22T14:20:28.779Z,2.40
2018-03-22T14:22:56.285Z,2.50
2018-03-22T14:25:23.819Z,2.50
2018-03-22T14:27:51.370Z,2.50
2018-03-22T14:30:18.907Z,2.50
2018-03-22T14:32:46.447Z,2.40
2018-03-22T14:35:14.012Z,2.40
2018-03-22T14:37:42.286Z,2.40
2018-03-22T14:40:10.595Z,2.40
2018-03-22T14:42:38.103Z,2.30
2018-03-22T14:45:05.673Z,2.40
2018-03-22T14:47:33.972Z,2.30
2018-03-22T14:50:01.511Z,2.20
2018-03-22T14:52:29.053Z,2.20
2018-03-22T14:54:56.579Z,2.20
2018-03-22T14:57:24.106Z,2.20
2018-03-22T15:00:06.924Z,2.00
2018-03-22T15:02:35.236Z,1.90
2018-03-22T15:05:02.764Z,1.90
2018-03-22T15:07:31.081Z,1.80
2018-03-22T15:09:58.590Z,1.80
2018-03-22T15:12:26.903Z,1.80
2018-03-22T15:14:54.444Z,1.80
2018-03-22T15:17:21.989Z,1.80
2018-03-22T15:19:50.278Z,1.90
2018-03-22T15:22:17.837Z,1.90
2018-03-22T15:24:45.381Z,1.90
2018-03-22T15:27:12.897Z,1.90
2018-03-22T15:29:40.439Z,1.90
2018-03-22T15:32:08.026Z,1.90
2018-03-22T15:34:35.607Z,1.90
2018-03-22T15:37:03.100Z,1.90
2018-03-22T15:39:31.408Z,1.90
2018-03-22T15:41:59.748Z,1.90
2018-03-22T15:44:27.290Z,1.80
2018-03-22T15:46:54.830Z,1.90
2018-03-22T15:49:22.361Z,1.90
2018-03-22T15:51:50.028Z,1.90
2018-03-22T15:54:17.575Z,1.90
2018-03-22T15:56:45.199Z,1.80
2018-03-22T15:59:12.774Z,1.80
2018-03-22T16:01:41.102Z,1.60
2018-03-22T16:04:08.622Z,1.50
2018-03-22T16:06:36.179Z,1.50
2018-03-22T16:09:04.498Z,1.40
2018-03-22T16:11:32.014Z,1.40
2018-03-22T16:14:00.320Z,1.40
2018-03-22T16:16:27.866Z,1.30
2018-03-22T16:18:55.410Z,1.40
2018-03-22T16:21:23.678Z,1.40
2018-03-22T16:23:51.261Z,1.40
2018-03-22T16:26:19.555Z,1.40
2018-03-22T16:28:47.078Z,1.40
2018-03-22T16:31:15.412Z,1.50
2018-03-22T16:33:42.956Z,1.40
2018-03-22T16:36:10.466Z,1.40
2018-03-22T16:38:38.029Z,1.40
2018-03-22T16:41:05.547Z,1.30
2018-03-22T16:43:33.090Z,1.30
2018-03-22T16:46:00.620Z,1.20
2018-03-22T16:48:28.163Z,1.20
2018-03-22T16:50:55.697Z,1.10
2018-03-22T16:53:23.245Z,1.10
2018-03-22T16:55:50.796Z,1.10
2018-03-22T16:58:18.350Z,1.10
2018-03-22T17:00:45.877Z,1.10
2018-03-22T17:03:13.402Z,1.00
2018-03-22T17:05:40.948Z,1.00
2018-03-22T17:08:08.526Z,1.00
2018-03-22T17:10:36.831Z,1.00
2018-03-22T17:13:04.368Z,0.90
2018-03-22T17:15:31.887Z,0.90
2018-03-22T17:17:59.449Z,0.90
2018-03-22T17:20:27.019Z,0.80
2018-03-22T17:22:54.591Z,0.80
2018-03-22T17:25:22.160Z,0.80
2018-03-22T17:27:50.531Z,0.80
2018-03-22T17:30:18.070Z,0.70
2018-03-22T17:32:45.712Z,0.80
2018-03-22T17:35:13.267Z,0.70
2018-03-22T17:37:40.784Z,0.70
2018-03-22T17:40:09.123Z,0.60
2018-03-22T17:42:37.403Z,0.60
2018-03-22T17:45:07.473Z,0.50
2018-03-22T17:47:35.051Z,0.50
2018-03-22T17:50:02.586Z,0.50
2018-03-22T17:52:30.114Z,0.50
2018-03-22T17:54:57.642Z,0.50
2018-03-22T17:57:26.686Z,0.40
2018-03-22T17:59:54.258Z,0.40
2018-03-22T18:02:21.770Z,0.40
2018-03-22T18:04:50.091Z,0.40
2018-03-22T18:07:17.648Z,0.40
2018-03-22T18:09:45.245Z,0.50
2018-03-22T18:12:12.867Z,0.50
2018-03-22T18:14:40.544Z,0.50
2018-03-22T18:17:08.119Z,0.50
2018-03-22T18:19:39.207Z,0.50
2018-03-22T18:22:07.524Z,0.40
2018-03-22T18:27:08.937Z,0.50
2018-03-22T18:29:37.231Z,0.50
2018-03-22T18:32:05.540Z,0.50
2018-03-22T18:34:33.059Z,0.40
2018-03-22T18:37:01.442Z,0.50
2018-03-22T18:39:29.794Z,0.50
2018-03-22T18:41:57.348Z,0.50
2018-03-22T18:44:24.867Z,0.50
2018-03-22T18:46:52.412Z,0.50
2018-03-22T18:49:20.745Z,0.50
2018-03-22T18:51:48.272Z,0.50
2018-03-22T18:54:15.804Z,0.50
2018-03-22T18:56:44.136Z,0.40
2018-03-22T18:59:12.331Z,0.40
2018-03-22T19:01:39.862Z,0.40
2018-03-22T19:04:07.387Z,0.40
2018-03-22T19:06:35.018Z,0.40
2018-03-22T19:09:03.460Z,0.40
2018-03-22T19:11:31.031Z,0.40
2018-03-22T19:13:58.547Z,0.40
2018-03-22T19:16:26.845Z,0.50
2018-03-22T19:19:15.420Z,0.40
2018-03-22T19:21:42.994Z,0.50
2018-03-22T19:24:10.512Z,0.40
2018-03-22T19:26:38.818Z,0.40
2018-03-22T19:29:06.363Z,0.40
2018-03-22T19:31:33.913Z,0.40
2018-03-22T19:34:01.435Z,0.40
2018-03-22T19:36:28.987Z,0.50
2018-03-22T19:38:56.507Z,0.50
2018-03-22T19:41:24.063Z,0.50
2018-03-22T19:43:51.598Z,0.50
2018-03-22T19:46:19.899Z,0.50
2018-03-22T19:48:47.442Z,0.40
2018-03-22T19:51:14.984Z,0.50
2018-03-22T19:53:42.502Z,0.50
2018-03-22T19:56:10.055Z,0.50
2018-03-22T19:58:37.579Z,0.50
2018-03-22T20:01:05.868Z,0.50
2018-03-22T20:03:33.455Z,0.50
2018-03-22T20:06:00.991Z,0.50
2018-03-22T20:08:28.577Z,0.50
2018-03-22T20:10:56.104Z,0.50
2018-03-22T20:13:23.659Z,0.50
2018-03-22T20:15:51.944Z,0.50
2018-03-22T20:18:19.480Z,0.40
2018-03-22T20:20:47.038Z,0.50
2018-03-22T20:23:14.579Z,0.50
2018-03-22T20:25:42.142Z,0.50
2018-03-22T20:28:09.684Z,0.50
2018-03-22T20:30:37.205Z,0.50
2018-03-22T20:33:05.522Z,0.50
2018-03-22T20:35:33.054Z,0.50
2018-03-22T20:38:00.595Z,0.50
2018-03-22T20:40:28.877Z,0.50
2018-03-22T20:42:57.174Z,0.50
2018-03-22T20:45:24.712Z,0.40
2018-03-22T20:47:53.035Z,0.50
2018-03-22T20:50:20.575Z,0.40
2018-03-22T20:52:48.170Z,0.50
2018-03-22T20:55:15.705Z,0.50
2018-03-22T20:57:43.235Z,0.50
2018-03-22T21:00:11.569Z,0.50
2018-03-22T21:02:39.092Z,0.50
2018-03-22T21:05:06.657Z,0.50
2018-03-22T21:07:34.184Z,0.50
2018-03-22T21:10:01.761Z,0.50
2018-03-22T21:12:29.335Z,0.50
2018-03-22T21:14:56.920Z,0.50
2018-03-22T21:17:24.425Z,0.50
2018-03-22T21:19:52.749Z,0.50
2018-03-22T21:22:20.258Z,0.50
2018-03-22T21:24:48.572Z,0.50
2018-03-22T21:27:16.105Z,0.40
2018-03-22T21:29:44.403Z,0.50
2018-03-22T21:32:12.689Z,0.40
2018-03-22T21:34:40.223Z,0.40
2018-03-22T21:37:07.735Z,0.50
2018-03-22T21:39:35.268Z,0.50
2018-03-22T21:42:06.681Z,0.50
2018-03-22T21:44:34.213Z,0.50
2018-03-22T21:47:13.547Z,0.40
2018-03-22T21:49:41.073Z,0.40
2018-03-22T21:52:20.324Z,0.40
2018-03-22T21:54:47.863Z,0.40
2018-03-22T21:57:16.135Z,0.30
2018-03-22T21:59:44.434Z,0.30
2018-03-22T22:02:11.953Z,0.30
2018-03-22T22:04:40.257Z,0.30
2018-03-22T22:07:07.783Z,0.20
2018-03-22T22:09:36.831Z,0.20
2018-03-22T22:12:04.346Z,0.20
2018-03-22T22:14:31.864Z,0.30
2018-03-22T22:16:59.398Z,0.30
2018-03-22T22:19:26.915Z,0.30
2018-03-22T22:21:54.441Z,0.30
2018-03-22T22:24:21.956Z,0.30
2018-03-22T22:26:50.290Z,0.30
2018-03-22T22:29:17.803Z,0.20
2018-03-22T22:31:46.095Z,0.30
2018-03-22T22:34:13.619Z,0.20
2018-03-22T22:36:41.163Z,0.30
2018-03-22T22:39:08.666Z,0.30
2018-03-22T22:41:36.962Z,0.30
2018-03-22T22:44:04.479Z,0.30
2018-03-22T22:46:32.003Z,0.40
2018-03-22T22:49:01.535Z,0.40
2018-03-22T22:51:29.058Z,0.40
2018-03-22T22:53:56.788Z,0.30
2018-03-22T22:56:25.095Z,0.40
2018-03-22T22:58:52.599Z,0.30
2018-03-22T23:01:20.133Z,0.40
2018-03-22T23:03:47.650Z,0.40
2018-03-22T23:06:15.183Z,0.40
2018-03-22T23:08:42.687Z,0.40
2018-03-22T23:11:10.222Z,0.40
2018-03-22T23:13:38.508Z,0.40
2018-03-22T23:16:06.804Z,0.40
2018-03-22T23:18:34.316Z,0.30
2018-03-22T23:21:01.843Z,0.40
2018-03-22T23:23:29.358Z,0.40
2018-03-22T23:25:57.659Z,0.40
2018-03-22T23:28:25.178Z,0.30
2018-03-22T23:30:53.479Z,0.40
2018-03-22T23:33:21.763Z,0.40
2018-03-22T23:35:49.317Z,0.30
2018-03-22T23:38:17.610Z,0.40
2018-03-22T23:40:45.129Z,0.40
2018-03-22T23:43:12.659Z,0.40
2018-03-22T23:45:40.181Z,0.40
2018-03-22T23:48:08.473Z,0.40
2018-03-22T23:50:35.989Z,0.40
2018-03-22T23:53:04.305Z,0.40
2018-03-22T23:55:32.588Z,0.40
2018-03-22T23:58:00.115Z,0.40
